Airfield :







YOU CAN JOIN US ON...

 
LOGIN :

Register | Disclaimer

   EN    FR    IT 

 









Legend :    VFR   Marginal VFR   IFR   Intensive IFR   Very Intensive IFR
Visi :
Ceiling :
>= 8 km
>= 3000ft
5 to 8 km
1000 to 3000 ft
1500m to 5 km
500 to 1000 ft
800 to 1500m
200 to 500 ft
< 800m
< 200 ft
Symbols :   Thunderstorms  Fog  Heavy snow  Heavy precipitations  Wind > 20 kt






- Airport Elevation : 266 ft
- IATA code : MHT


KMHT - Manchester

CURRENT METAR :
  • 250153Z 00000KT 10SM CLR 11/07 A2983 RMK AO2 SLP114 T01060067 $

EXPIRED METARs :
  • 250053Z 00000KT 10SM CLR 12/07 A2982 RMK AO2 SLP110 T01170067 $
  • 242353Z 26004KT 10SM FEW250 15/06 A2981 RMK AO2 SLP109 T01500056 10206 20150 53005

TAF KMHT
Valid from the 25 at 00:00 until the 26 at 00:00 UTC


242333Z 2500/2524 26007KT P6SM FEW250
FM251300 VRB03KT P6SM FEW090
FM252000 18008KT P6SM -RA OVC050
KZBW FIR / North America



MET'MAP, your aeronautical weather chart ! - Copyright ORBIFLY December 2007 - Disclaimer

ORBIFLY MET'MAP TEAM :

Programming & Development : Alexandra Zaïnal
Original concept : Baudouin d'Aumeries
Technical & hardware support : Manuel Goepfert
Assistance : Marc-Olivier Méhu




SOURCES & CREDITS :

   NOAA